createdAt,value
2022-12-05T00:00:40.372Z,18.05
2022-12-05T00:03:42.237Z,17.65
2022-12-05T00:06:44.077Z,16.75
2022-12-05T00:09:45.619Z,19.63
2022-12-05T00:12:47.113Z,18.38
2022-12-05T00:15:48.598Z,19.33
2022-12-05T00:18:50.429Z,19.52
2022-12-05T00:21:52.101Z,18.80
2022-12-05T00:24:53.709Z,18.63
2022-12-05T00:27:55.308Z,18.02
2022-12-05T00:30:57.055Z,16.75
2022-12-05T00:34:02.963Z,17.38
2022-12-05T00:37:04.560Z,16.83
2022-12-05T00:40:06.834Z,18.63
2022-12-05T00:43:08.320Z,17.55
2022-12-05T00:46:18.888Z,16.98
2022-12-05T00:49:20.520Z,16.50
2022-12-05T00:52:22.070Z,14.85
2022-12-05T00:55:23.596Z,15.10
2022-12-05T00:58:25.086Z,15.55
2022-12-05T01:01:33.176Z,13.00
2022-12-05T01:04:34.892Z,12.90
2022-12-05T01:07:36.417Z,13.65
2022-12-05T01:10:38.014Z,13.48
2022-12-05T01:13:39.610Z,12.82
2022-12-05T01:16:42.785Z,12.05
2022-12-05T01:19:44.341Z,11.47
2022-12-05T01:22:45.864Z,10.93
2022-12-05T01:25:49.691Z,11.55
2022-12-05T01:28:52.461Z,11.85
2022-12-05T01:31:54.782Z,11.45
2022-12-05T01:34:56.500Z,10.55
2022-12-05T01:37:58.313Z,10.63
2022-12-05T01:41:01.922Z,11.05
2022-12-05T01:44:08.154Z,10.60
2022-12-05T01:47:09.687Z,10.77
2022-12-05T01:50:13.063Z,10.85
2022-12-05T01:53:16.083Z,10.27
2022-12-05T01:56:20.108Z,10.38
2022-12-05T01:59:22.906Z,9.30
2022-12-05T02:02:24.892Z,9.63
2022-12-05T02:05:33.536Z,9.90
2022-12-05T02:08:35.982Z,8.05
2022-12-05T02:11:50.066Z,8.38
2022-12-05T02:15:24.086Z,10.52
2022-12-05T02:18:25.519Z,9.43
2022-12-05T02:21:45.388Z,9.43
2022-12-05T02:24:55.814Z,9.93
2022-12-05T02:28:19.004Z,9.73
2022-12-05T02:31:39.253Z,10.48
2022-12-05T02:35:22.546Z,8.75
2022-12-05T02:38:40.985Z,9.05
2022-12-05T02:41:58.604Z,8.38
2022-12-05T02:45:05.505Z,9.20
2022-12-05T02:48:08.099Z,8.70
2022-12-05T02:51:14.745Z,9.00
2022-12-05T02:54:21.347Z,9.77
2022-12-05T02:57:24.751Z,10.18
2022-12-05T03:00:26.570Z,9.75
2022-12-05T03:03:28.962Z,10.07
2022-12-05T03:06:45.478Z,9.20
2022-12-05T03:09:54.156Z,9.32
2022-12-05T03:13:00.715Z,9.35
2022-12-05T03:16:11.671Z,8.30
2022-12-05T03:19:23.769Z,9.15
2022-12-05T03:22:46.703Z,8.30
2022-12-05T03:26:02.713Z,8.90
2022-12-05T03:29:36.484Z,8.55
2022-12-05T03:33:04.936Z,7.95
2022-12-05T03:36:13.823Z,7.47
2022-12-05T03:39:25.954Z,7.93
2022-12-05T03:42:33.862Z,8.35
2022-12-05T03:45:42.662Z,8.10
2022-12-05T03:48:56.868Z,7.72
2022-12-05T03:52:09.363Z,8.18
2022-12-05T03:55:13.975Z,7.85
2022-12-05T03:58:26.214Z,7.10
2022-12-05T04:01:31.435Z,6.90
2022-12-05T04:04:49.115Z,7.10
2022-12-05T04:08:23.852Z,7.35
2022-12-05T04:11:28.141Z,7.38
2022-12-05T04:14:44.588Z,8.23
2022-12-05T04:18:12.669Z,7.43
2022-12-05T04:21:34.774Z,7.65
2022-12-05T04:24:54.896Z,7.22
2022-12-05T04:28:33.181Z,7.05
2022-12-05T04:31:44.368Z,6.65
2022-12-05T04:34:54.737Z,6.20
2022-12-05T04:38:04.186Z,7.00
2022-12-05T04:41:11.276Z,6.43
2022-12-05T04:44:17.505Z,6.32
2022-12-05T04:47:21.209Z,9.98
2022-12-05T04:50:27.001Z,11.52
2022-12-05T04:53:31.062Z,12.43
2022-12-05T04:59:36.145Z,9.73
2022-12-05T05:02:47.239Z,9.13
2022-12-05T05:05:53.065Z,7.68
2022-12-05T05:08:56.877Z,6.13
2022-12-05T05:11:58.430Z,6.72
2022-12-05T05:14:59.978Z,6.93
2022-12-05T05:18:01.562Z,6.22
2022-12-05T05:21:03.038Z,6.43
2022-12-05T05:24:06.342Z,7.03
2022-12-05T05:27:07.886Z,6.43
2022-12-05T05:30:09.794Z,6.90
2022-12-05T05:33:11.312Z,6.30
2022-12-05T05:36:13.994Z,7.47
2022-12-05T05:39:15.669Z,7.45
2022-12-05T05:42:17.284Z,7.88
2022-12-05T05:45:18.914Z,7.78
2022-12-05T05:48:20.478Z,7.15
2022-12-05T05:51:23.493Z,7.68
2022-12-05T05:54:25.062Z,8.30
2022-12-05T05:57:26.579Z,6.60
2022-12-05T06:00:28.168Z,8.05
2022-12-05T06:03:29.750Z,7.22
2022-12-05T06:06:31.457Z,7.68
2022-12-05T06:09:32.960Z,7.72
2022-12-05T06:12:34.555Z,7.20
2022-12-05T06:15:37.155Z,7.72
2022-12-05T06:18:38.769Z,7.65
2022-12-05T06:21:40.369Z,8.57
2022-12-05T06:24:41.887Z,11.80
2022-12-05T06:27:43.430Z,11.05
2022-12-05T06:30:45.215Z,11.27
2022-12-05T06:33:47.179Z,12.80
2022-12-05T06:36:48.750Z,11.55
2022-12-05T06:39:51.857Z,10.38
2022-12-05T06:42:53.549Z,10.18
2022-12-05T06:45:55.271Z,10.77
2022-12-05T06:48:58.106Z,10.68
2022-12-05T06:51:59.754Z,9.35
2022-12-05T06:55:01.321Z,8.32
2022-12-05T06:58:03.009Z,7.97
2022-12-05T07:01:23.264Z,8.23
2022-12-05T07:04:25.871Z,10.82
2022-12-05T07:07:29.518Z,10.30
2022-12-05T07:10:31.192Z,9.75
2022-12-05T07:13:32.819Z,9.32
2022-12-05T07:16:34.546Z,8.32
2022-12-05T07:19:36.421Z,10.93
2022-12-05T07:22:38.036Z,10.75
2022-12-05T07:25:41.545Z,9.35
2022-12-05T07:28:43.002Z,10.43
2022-12-05T07:31:44.777Z,9.43
2022-12-05T07:34:49.639Z,10.15
2022-12-05T07:37:53.747Z,10.38
2022-12-05T07:40:55.410Z,9.68
2022-12-05T07:43:58.337Z,9.48
2022-12-05T07:46:59.876Z,9.73
2022-12-05T07:50:01.438Z,9.88
2022-12-05T07:53:04.247Z,11.85
2022-12-05T07:56:07.874Z,10.50
2022-12-05T07:59:09.508Z,10.90
2022-12-05T08:02:11.335Z,9.38
2022-12-05T08:05:13.217Z,9.88
2022-12-05T08:08:14.815Z,14.70
2022-12-05T08:11:18.884Z,13.13
2022-12-05T08:14:20.691Z,9.23
2022-12-05T08:17:22.282Z,10.43
2022-12-05T08:20:23.810Z,11.00
2022-12-05T08:23:25.392Z,15.75
2022-12-05T08:26:29.303Z,10.32
2022-12-05T08:29:30.912Z,16.02
2022-12-05T08:32:32.460Z,8.70
2022-12-05T08:35:37.335Z,11.57
2022-12-05T08:38:39.106Z,11.80
2022-12-05T08:41:40.859Z,11.75
2022-12-05T08:44:42.443Z,12.95
2022-12-05T08:47:43.938Z,20.17
2022-12-05T08:50:45.579Z,12.43
2022-12-05T08:53:47.328Z,11.70
2022-12-05T08:56:51.634Z,12.98
2022-12-05T08:59:53.270Z,11.98
2022-12-05T09:02:54.831Z,10.98
2022-12-05T09:06:09.367Z,7.75
2022-12-05T09:12:15.290Z,7.63
2022-12-05T09:15:17.526Z,6.27
2022-12-05T09:18:20.226Z,5.85
2022-12-05T09:21:25.503Z,6.20
2022-12-05T09:24:27.077Z,5.47
2022-12-05T09:27:29.063Z,5.40
2022-12-05T09:30:30.582Z,10.05
2022-12-05T09:33:34.122Z,5.80
2022-12-05T09:36:35.654Z,4.95
2022-12-05T09:39:37.545Z,6.03
2022-12-05T09:43:01.433Z,4.40
2022-12-05T09:46:35.909Z,4.23
2022-12-05T09:49:47.544Z,4.22
2022-12-05T09:53:10.556Z,5.65
2022-12-05T09:56:25.761Z,6.30
2022-12-05T09:59:27.295Z,6.80
2022-12-05T10:02:53.897Z,7.45
2022-12-05T10:06:27.858Z,7.35
2022-12-05T10:09:47.631Z,7.77
2022-12-05T10:12:54.877Z,8.30
2022-12-05T10:16:02.894Z,7.22
2022-12-05T10:19:14.727Z,7.47
2022-12-05T10:22:22.006Z,6.90
2022-12-05T10:25:27.455Z,5.93
2022-12-05T10:28:35.602Z,6.43
2022-12-05T10:31:39.085Z,5.88
2022-12-05T10:34:43.028Z,5.80
2022-12-05T10:37:49.941Z,5.30
2022-12-05T10:40:54.593Z,5.05
2022-12-05T10:43:58.916Z,5.10
2022-12-05T10:47:01.806Z,4.95
2022-12-05T10:50:35.856Z,4.93
2022-12-05T10:53:40.027Z,4.90
2022-12-05T10:56:50.066Z,4.68
2022-12-05T10:59:52.639Z,5.35
2022-12-05T11:02:55.370Z,4.47
2022-12-05T11:06:01.995Z,4.38
2022-12-05T11:09:15.831Z,4.63
2022-12-05T11:12:20.184Z,5.05
2022-12-05T11:15:25.522Z,4.80
2022-12-05T11:18:32.734Z,4.70
2022-12-05T11:21:42.624Z,5.30
2022-12-05T11:24:44.147Z,4.88
2022-12-05T11:27:45.687Z,4.03
2022-12-05T11:31:02.932Z,3.78
2022-12-05T11:34:17.578Z,3.58
2022-12-05T11:37:31.605Z,3.22
2022-12-05T11:40:38.156Z,3.70
2022-12-05T11:43:58.646Z,3.78
2022-12-05T11:47:18.829Z,3.47
2022-12-05T11:50:44.882Z,3.47
2022-12-05T11:54:14.116Z,3.22
2022-12-05T11:57:32.683Z,3.80
2022-12-05T12:01:21.244Z,4.13
2022-12-05T12:05:13.946Z,3.95
2022-12-05T12:08:42.911Z,4.40
2022-12-05T12:12:04.251Z,3.97
2022-12-05T12:15:17.355Z,4.60
2022-12-05T12:18:24.472Z,5.13
2022-12-05T12:22:04.017Z,5.43
2022-12-05T12:25:32.286Z,4.65
2022-12-05T12:29:01.500Z,4.60
2022-12-05T12:32:22.296Z,4.20
2022-12-05T12:35:32.118Z,4.35
2022-12-05T12:39:04.441Z,4.30
2022-12-05T12:42:15.927Z,4.63
2022-12-05T12:45:21.078Z,5.03
2022-12-05T12:48:42.681Z,6.50
2022-12-05T12:51:54.529Z,6.40
2022-12-05T12:55:27.075Z,5.35
2022-12-05T12:59:04.317Z,5.00
2022-12-05T13:02:16.246Z,5.50
2022-12-05T13:05:38.675Z,4.90
2022-12-05T13:08:45.992Z,5.90
2022-12-05T13:11:50.573Z,5.65
2022-12-05T13:14:58.395Z,5.43
2022-12-05T13:18:01.853Z,7.38
2022-12-05T13:21:07.950Z,7.82
2022-12-05T13:24:13.736Z,7.60
2022-12-05T13:27:19.148Z,7.65
2022-12-05T13:30:20.944Z,7.30
2022-12-05T13:33:26.091Z,6.78
2022-12-05T13:36:46.427Z,8.27
2022-12-05T13:40:11.842Z,5.47
2022-12-05T13:43:18.489Z,5.43
2022-12-05T13:46:27.220Z,5.82
2022-12-05T13:49:43.322Z,6.03
2022-12-05T13:52:57.950Z,6.20
2022-12-05T13:56:13.342Z,6.50
2022-12-05T13:59:53.373Z,6.13
2022-12-05T14:03:06.093Z,6.53
2022-12-05T14:06:07.899Z,10.00
2022-12-05T14:09:18.221Z,10.57
2022-12-05T14:12:19.671Z,8.43
2022-12-05T14:15:24.388Z,7.53
2022-12-05T14:18:48.607Z,7.03
2022-12-05T14:21:59.039Z,6.97
2022-12-05T14:25:16.995Z,7.28
2022-12-05T14:28:46.725Z,5.97
2022-12-05T14:32:06.390Z,5.80
2022-12-05T14:35:40.836Z,5.55
2022-12-05T14:38:44.193Z,5.13
2022-12-05T14:41:47.528Z,5.72
2022-12-05T14:44:50.722Z,5.50
2022-12-05T14:47:55.815Z,5.35
2022-12-05T14:50:59.786Z,5.55
2022-12-05T14:54:07.845Z,5.18
2022-12-05T14:57:16.408Z,5.15
2022-12-05T15:00:22.577Z,5.13
2022-12-05T15:03:32.422Z,4.95
2022-12-05T15:06:55.809Z,4.85
2022-12-05T15:10:01.621Z,5.68
2022-12-05T15:13:10.947Z,4.90
2022-12-05T15:16:18.103Z,5.03
2022-12-05T15:19:30.003Z,5.53
2022-12-05T15:22:35.318Z,5.57
2022-12-05T15:25:37.397Z,5.18
2022-12-05T15:28:38.931Z,5.18
2022-12-05T15:31:50.089Z,5.78
2022-12-05T15:34:54.623Z,5.40
2022-12-05T15:38:25.479Z,5.63
2022-12-05T15:41:28.671Z,5.43
2022-12-05T15:44:34.435Z,5.85
2022-12-05T15:47:40.633Z,5.80
2022-12-05T15:50:51.181Z,6.15
2022-12-05T15:54:00.284Z,6.40
2022-12-05T15:57:09.224Z,6.63
2022-12-05T16:00:17.277Z,6.78
2022-12-05T16:03:25.846Z,5.28
2022-12-05T16:06:44.913Z,5.28
2022-12-05T16:09:47.673Z,4.90
2022-12-05T16:12:51.287Z,6.25
2022-12-05T16:15:54.802Z,5.45
2022-12-05T16:18:59.312Z,4.65
2022-12-05T16:22:09.370Z,4.55
2022-12-05T16:25:34.742Z,4.57
2022-12-05T16:28:36.282Z,4.30
2022-12-05T16:31:45.150Z,4.75
2022-12-05T16:34:47.640Z,5.13
2022-12-05T16:37:49.124Z,4.75
2022-12-05T16:40:52.839Z,4.63
2022-12-05T16:43:57.316Z,5.28
2022-12-05T16:46:59.117Z,5.97
2022-12-05T16:50:25.491Z,5.15
2022-12-05T16:53:32.976Z,5.00
2022-12-05T16:56:34.640Z,4.45
2022-12-05T16:59:38.929Z,5.15
2022-12-05T17:02:40.523Z,4.75
2022-12-05T17:05:42.085Z,5.25
2022-12-05T17:08:44.521Z,5.70
2022-12-05T17:11:49.310Z,6.10
2022-12-05T17:14:50.847Z,5.85
2022-12-05T17:17:52.680Z,6.15
2022-12-05T17:20:55.920Z,5.72
2022-12-05T17:23:57.508Z,6.33
2022-12-05T17:26:59.014Z,6.32
2022-12-05T17:30:00.845Z,6.75
2022-12-05T17:33:04.376Z,7.53
2022-12-05T17:36:06.044Z,8.40
2022-12-05T17:39:08.869Z,9.25
2022-12-05T17:42:10.365Z,9.43
2022-12-05T17:45:14.768Z,9.27
2022-12-05T17:48:16.710Z,8.63
2022-12-05T17:51:19.946Z,19.40
2022-12-05T17:54:22.219Z,17.10
2022-12-05T17:57:23.975Z,11.40
2022-12-05T18:00:25.662Z,12.77
2022-12-05T18:03:27.474Z,12.20
2022-12-05T18:06:29.112Z,7.70
2022-12-05T18:09:31.111Z,14.45
2022-12-05T18:12:32.817Z,7.35
2022-12-05T18:15:39.383Z,13.30
2022-12-05T18:18:44.148Z,8.52
2022-12-05T18:24:53.174Z,7.07
2022-12-05T18:27:55.512Z,6.80
2022-12-05T18:31:11.737Z,7.05
2022-12-05T18:34:13.291Z,12.73
2022-12-05T18:37:16.565Z,12.20
2022-12-05T18:40:19.163Z,12.07
2022-12-05T18:43:21.273Z,7.97
2022-12-05T18:46:23.470Z,9.18
2022-12-05T18:49:25.062Z,5.75
2022-12-05T18:52:26.627Z,4.38
2022-12-05T18:55:57.861Z,4.93
2022-12-05T18:58:58.097Z,4.95
2022-12-05T19:02:00.545Z,4.88
2022-12-05T19:05:02.130Z,8.40
2022-12-05T19:08:04.051Z,10.88
2022-12-05T19:11:06.229Z,8.73
2022-12-05T19:14:07.888Z,10.65
2022-12-05T19:17:09.481Z,6.32
2022-12-05T19:20:11.832Z,6.88
2022-12-05T19:23:14.139Z,6.93
2022-12-05T19:26:15.977Z,7.90
2022-12-05T19:29:17.740Z,5.95
2022-12-05T19:32:19.286Z,5.63
2022-12-05T19:35:21.028Z,5.95
2022-12-05T19:38:22.486Z,7.63
2022-12-05T19:41:27.787Z,8.57
2022-12-05T19:44:29.485Z,8.90
2022-12-05T19:47:31.096Z,6.18
2022-12-05T19:50:32.643Z,4.75
2022-12-05T19:53:36.397Z,5.22
2022-12-05T19:56:38.555Z,5.28
2022-12-05T19:59:40.235Z,5.10
2022-12-05T20:02:44.815Z,6.72
2022-12-05T20:05:57.862Z,5.45
2022-12-05T20:09:00.302Z,5.28
2022-12-05T20:12:04.267Z,4.90
2022-12-05T20:15:06.274Z,5.50
2022-12-05T20:18:07.786Z,6.15
2022-12-05T20:21:12.331Z,6.70
2022-12-05T20:24:13.935Z,6.00
2022-12-05T20:27:15.407Z,6.90
2022-12-05T20:30:17.111Z,5.72
2022-12-05T20:33:18.679Z,5.30
2022-12-05T20:36:22.678Z,6.07
2022-12-05T20:42:26.376Z,6.80
2022-12-05T20:45:27.961Z,6.68
2022-12-05T20:48:29.486Z,8.20
2022-12-05T20:51:33.218Z,5.70
2022-12-05T20:54:37.586Z,5.10
2022-12-05T20:57:40.405Z,5.25
2022-12-05T21:00:43.566Z,5.30
2022-12-05T21:03:47.264Z,5.40
2022-12-05T21:06:49.646Z,5.35
2022-12-05T21:09:51.210Z,5.20
2022-12-05T21:12:52.780Z,7.35
2022-12-05T21:15:54.347Z,4.82
2022-12-05T21:18:56.428Z,6.95
2022-12-05T21:21:58.178Z,7.05
2022-12-05T21:24:59.854Z,4.97
2022-12-05T21:28:02.166Z,4.82
2022-12-05T21:31:24.940Z,4.70
2022-12-05T21:34:26.552Z,12.43
2022-12-05T21:37:28.097Z,12.45
2022-12-05T21:40:29.814Z,14.18
2022-12-05T21:43:33.250Z,17.05
2022-12-05T21:46:34.888Z,15.32
2022-12-05T21:49:36.420Z,12.05
2022-12-05T21:52:41.316Z,9.27
2022-12-05T21:55:43.467Z,8.45
2022-12-05T21:58:46.257Z,7.18
2022-12-05T22:01:47.789Z,11.60
2022-12-05T22:04:49.426Z,12.63
2022-12-05T22:07:51.013Z,10.43
2022-12-05T22:10:52.600Z,14.25
2022-12-05T22:13:54.166Z,6.20
2022-12-05T22:16:55.646Z,11.75
2022-12-05T22:19:58.896Z,10.23
2022-12-05T22:23:00.693Z,7.78
2022-12-05T22:26:03.297Z,6.10
2022-12-05T22:29:04.963Z,7.50
2022-12-05T22:32:06.930Z,10.98
2022-12-05T22:35:08.647Z,21.85
2022-12-05T22:38:10.172Z,16.30
2022-12-05T22:41:14.435Z,16.92
2022-12-05T22:44:16.002Z,21.15
2022-12-05T22:47:17.579Z,23.70
2022-12-05T22:50:19.036Z,12.30
2022-12-05T22:53:22.850Z,12.75
2022-12-05T22:56:27.395Z,14.52
2022-12-05T22:59:28.922Z,7.00
2022-12-05T23:02:30.420Z,5.38
2022-12-05T23:05:32.129Z,5.65
2022-12-05T23:08:34.409Z,8.85
2022-12-05T23:11:38.131Z,8.60
2022-12-05T23:14:41.538Z,5.90
2022-12-05T23:17:43.775Z,6.00
2022-12-05T23:20:45.336Z,6.28
2022-12-05T23:23:48.218Z,5.20
2022-12-05T23:26:49.769Z,6.35
2022-12-05T23:29:51.350Z,5.88
2022-12-05T23:32:52.931Z,5.78
2022-12-05T23:35:54.591Z,6.75
2022-12-05T23:38:56.114Z,5.50
2022-12-05T23:41:57.634Z,6.38
2022-12-05T23:44:59.147Z,6.35
2022-12-05T23:48:04.392Z,6.75
2022-12-05T23:51:09.291Z,6.10
2022-12-05T23:54:12.127Z,7.70
2022-12-05T23:57:17.609Z,6.90
